Time;durP1;ratioP1;P1;durP2;ratioP2;P2;SDS_P1;SDS_P2;PMS_P1;PMS_P2;Temp;Humidity;BMP_temperature;BMP_pressure;BME280_temperature;BME280_humidity;BME280_pressure;Samples;Min_cycle;Max_cycle;Signal;HPM_P1;HPM_P2
2023/10/06 04:22:36;;;;;;;5.35;2.80;;;;;;;5.81;100.00;101277.84;5109734;27;20391;-71
2023/10/06 04:25:01;;;;;;;4.78;3.22;;;;;;;5.89;100.00;101274.63;5109609;28;20024;-70
2023/10/06 04:27:26;;;;;;;5.03;3.15;;;;;;;5.92;100.00;101282.34;5109679;28;20494;-71
2023/10/06 04:29:52;;;;;;;5.43;3.00;;;;;;;5.90;100.00;101282.44;5109664;28;20104;-71
2023/10/06 04:32:18;;;;;;;5.75;3.15;;;;;;;5.84;100.00;101274.97;5109627;28;20028;-70
2023/10/06 04:34:43;;;;;;;5.00;3.13;;;;;;;5.86;100.00;101272.19;5109314;28;20039;-71
2023/10/06 04:37:08;;;;;;;5.03;3.40;;;;;;;5.86;100.00;101277.47;5109467;28;20051;-70
2023/10/06 04:39:34;;;;;;;8.40;3.22;;;;;;;5.85;100.00;101281.09;5109608;28;20119;-70
2023/10/06 04:42:00;;;;;;;5.13;3.80;;;;;;;5.92;100.00;101279.69;5109338;28;20040;-70
2023/10/06 04:44:25;;;;;;;4.53;3.60;;;;;;;5.92;100.00;101269.94;5109032;28;20474;-70
2023/10/06 04:46:52;;;;;;;5.05;3.50;;;;;;;5.87;100.00;101277.38;5109340;28;20054;-71
2023/10/06 04:49:17;;;;;;;10.50;5.43;;;;;;;5.95;100.00;101267.09;5109296;28;20078;-71
2023/10/06 04:51:42;;;;;;;8.43;4.53;;;;;;;5.94;100.00;101264.56;5109178;28;20063;-71
2023/10/06 04:54:08;;;;;;;7.65;4.50;;;;;;;5.99;100.00;101267.69;5108958;28;20048;-71
2023/10/06 04:56:33;;;;;;;10.00;4.38;;;;;;;6.01;100.00;101276.34;5109079;28;20024;-70
2023/10/06 04:58:59;;;;;;;7.55;3.65;;;;;;;5.99;100.00;101272.97;5109057;28;20028;-70
2023/10/06 05:01:28;;;;;;;5.50;3.78;;;;;;;6.03;100.00;101273.59;5109044;28;20398;-70
2023/10/06 05:03:54;;;;;;;6.93;3.38;;;;;;;6.10;100.00;101280.06;5107585;28;20497;-70
2023/10/06 05:06:21;;;;;;;4.78;3.45;;;;;;;6.12;100.00;101275.50;5108905;28;20050;-71
2023/10/06 05:08:48;;;;;;;4.47;2.92;;;;;;;6.07;100.00;101286.47;5109096;28;20038;-71
2023/10/06 05:11:15;;;;;;;6.75;3.10;;;;;;;6.13;100.00;101279.81;5108910;28;20059;-70
2023/10/06 05:13:40;;;;;;;6.10;3.17;;;;;;;6.11;100.00;101284.41;5108500;28;20035;-71
2023/10/06 05:16:06;;;;;;;5.18;3.17;;;;;;;6.13;100.00;101285.13;5108717;28;20040;-70
2023/10/06 05:18:33;;;;;;;7.78;4.47;;;;;;;6.18;100.00;101275.88;5108741;28;20050;-70
2023/10/06 05:20:58;;;;;;;5.60;3.67;;;;;;;6.16;100.00;101283.09;5108587;28;20051;-70
2023/10/06 05:23:24;;;;;;;7.78;3.90;;;;;;;6.18;100.00;101288.25;5108509;28;20044;-70
2023/10/06 05:25:49;;;;;;;7.45;3.63;;;;;;;6.17;100.00;101287.41;5108646;28;20069;-71
2023/10/06 05:28:17;;;;;;;8.25;3.85;;;;;;;6.24;100.00;101293.91;5108515;28;20127;-71
2023/10/06 05:30:45;;;;;;;8.13;3.88;;;;;;;6.25;100.00;101295.59;5108600;28;20074;-71
2023/10/06 05:33:11;;;;;;;7.03;3.92;;;;;;;6.30;100.00;101292.59;5098685;28;20079;-70
2023/10/06 05:35:40;;;;;;;5.85;3.30;;;;;;;6.30;100.00;101300.53;5094763;28;20107;-69
2023/10/06 05:38:15;;;;;;;6.05;3.88;;;;;;;6.31;100.00;101299.56;5094814;28;20036;-69
2023/10/06 05:40:42;;;;;;;6.25;3.10;;;;;;;6.25;100.00;101292.09;5094710;28;20131;-70
2023/10/06 05:43:11;;;;;;;19.40;4.38;;;;;;;6.31;100.00;101306.66;5094512;28;20024;-70
2023/10/06 05:45:39;;;;;;;13.55;4.20;;;;;;;6.34;100.00;101307.28;5094550;28;20067;-70
2023/10/06 05:48:10;;;;;;;6.78;3.67;;;;;;;6.37;100.00;101314.13;5094666;28;20161;-70
2023/10/06 05:50:36;;;;;;;8.93;4.10;;;;;;;6.43;100.00;101311.00;5094542;28;20115;-71
2023/10/06 05:53:04;;;;;;;6.63;3.95;;;;;;;6.48;100.00;101314.13;5094271;28;20390;-70
2023/10/06 05:55:38;;;;;;;7.13;3.47;;;;;;;6.43;100.00;101314.47;5094464;28;20024;-70
2023/10/06 05:58:14;;;;;;;7.10;3.88;;;;;;;6.39;100.00;101315.72;5094310;28;20495;-70
2023/10/06 06:00:55;;;;;;;8.40;4.18;;;;;;;6.42;100.00;101314.59;5094397;28;20032;-71
2023/10/06 06:03:23;;;;;;;6.65;3.53;;;;;;;6.45;100.00;101317.00;5094104;28;20039;-59
2023/10/06 06:05:53;;;;;;;8.57;3.58;;;;;;;6.44;100.00;101318.81;5094146;28;20036;-59
2023/10/06 06:08:19;;;;;;;12.88;5.28;;;;;;;6.50;100.00;101330.72;5094181;28;20088;-59
2023/10/06 06:10:47;;;;;;;12.25;5.50;;;;;;;6.58;100.00;101341.53;5094212;28;20049;-59
2023/10/06 06:13:13;;;;;;;20.05;6.20;;;;;;;6.70;100.00;101343.22;5093831;28;20051;-57
2023/10/06 06:15:39;;;;;;;10.25;5.75;;;;;;;6.74;100.00;101339.38;5093785;28;20074;-58
2023/10/06 06:18:05;;;;;;;16.10;6.00;;;;;;;6.83;100.00;101348.41;5093881;28;20067;-59
2023/10/06 06:20:30;;;;;;;8.90;4.78;;;;;;;6.89;100.00;101347.91;5092826;28;20096;-57
2023/10/06 06:23:02;;;;;;;11.02;5.03;;;;;;;6.96;100.00;101348.25;5087555;28;20082;-59
2023/10/06 06:25:28;;;;;;;14.98;6.05;;;;;;;7.00;100.00;101349.69;5079339;28;20041;-55
2023/10/06 06:27:54;;;;;;;13.02;6.85;;;;;;;7.08;100.00;101353.41;5073633;28;20033;-59
2023/10/06 06:30:24;;;;;;;14.70;5.75;;;;;;;7.05;100.00;101355.47;5073595;28;20032;-58
2023/10/06 06:32:50;;;;;;;37.13;6.43;;;;;;;7.04;100.00;101343.16;5073456;28;20040;-59
2023/10/06 06:35:19;;;;;;;58.15;7.50;;;;;;;7.06;100.00;101350.06;5073152;28;20032;-59
2023/10/06 06:37:51;;;;;;;22.85;5.65;;;;;;;7.10;100.00;101350.63;5073377;28;20186;-56
2023/10/06 06:40:20;;;;;;;46.58;6.32;;;;;;;7.16;100.00;101350.13;5073264;28;20044;-59
2023/10/06 06:42:51;;;;;;;20.58;5.07;;;;;;;7.25;100.00;101352.06;5073321;28;20036;-58
2023/10/06 06:45:17;;;;;;;32.30;6.10;;;;;;;7.34;100.00;101358.41;5072073;28;20452;-58
2023/10/06 06:47:43;;;;;;;14.48;4.82;;;;;;;7.39;100.00;101355.38;5076938;28;20032;-58
2023/10/06 06:50:15;;;;;;;7.82;3.90;;;;;;;7.41;100.00;101351.63;5082858;28;20023;-59
2023/10/06 06:52:45;;;;;;;12.52;5.70;;;;;;;7.45;100.00;101353.06;5082135;28;20037;-54
2023/10/06 06:55:14;;;;;;;19.77;8.25;;;;;;;7.51;100.00;101354.38;5082400;28;20554;-60
2023/10/06 06:57:46;;;;;;;9.20;7.22;;;;;;;7.58;100.00;101350.25;5083843;28;20096;-58
2023/10/06 07:00:16;;;;;;;8.52;6.20;;;;;;;7.60;100.00;101348.31;5083314;28;20031;-58
2023/10/06 07:02:46;;;;;;;11.32;6.00;;;;;;;7.67;100.00;101354.78;5082044;28;20044;-56
2023/10/06 07:05:15;;;;;;;7.32;5.47;;;;;;;7.70;100.00;101351.91;5081790;28;20028;-57
2023/10/06 07:07:43;;;;;;;6.50;4.85;;;;;;;7.74;100.00;101348.00;5083665;28;20040;-58
2023/10/06 07:10:14;;;;;;;7.07;4.35;;;;;;;7.78;100.00;101354.75;5082798;28;20040;-59
2023/10/06 07:12:41;;;;;;;7.35;4.72;;;;;;;7.82;100.00;101345.56;5081429;28;20476;-61
2023/10/06 07:15:14;;;;;;;9.15;4.90;;;;;;;7.86;100.00;101346.13;5082496;28;20040;-58
2023/10/06 07:17:51;;;;;;;5.05;3.55;;;;;;;7.94;100.00;101356.09;5083411;28;20042;-59
2023/10/06 07:20:18;;;;;;;6.35;4.13;;;;;;;7.96;100.00;101355.00;5086420;28;20043;-60
2023/10/06 07:22:45;;;;;;;7.22;3.55;;;;;;;8.04;100.00;101360.50;5092615;28;20449;-60
2023/10/06 07:25:11;;;;;;;5.65;4.00;;;;;;;8.12;100.00;101367.81;5092835;28;20467;-60
2023/10/06 07:27:40;;;;;;;6.07;4.00;;;;;;;8.21;100.00;101369.66;5092901;28;20055;-59
2023/10/06 07:30:10;;;;;;;6.30;4.00;;;;;;;8.28;100.00;101370.84;5092862;28;20051;-57
2023/10/06 07:32:40;;;;;;;5.03;3.83;;;;;;;8.37;100.00;101374.56;5092577;28;20035;-58
2023/10/06 07:35:07;;;;;;;6.25;3.92;;;;;;;8.47;100.00;101382.56;5092486;28;20064;-60
2023/10/06 07:37:33;;;;;;;4.70;3.58;;;;;;;8.54;100.00;101376.63;5092601;28;20031;-57
2023/10/06 07:40:02;;;;;;;5.50;3.92;;;;;;;8.59;100.00;101378.84;5092740;28;20453;-57
2023/10/06 07:42:29;;;;;;;6.10;3.65;;;;;;;8.68;100.00;101375.41;5092459;28;20036;-57
2023/10/06 07:44:55;;;;;;;5.75;4.30;;;;;;;8.79;100.00;101375.28;5092334;28;20024;-57
2023/10/06 07:47:24;;;;;;;4.32;3.58;;;;;;;8.82;100.00;101376.88;5092350;28;20093;-59
2023/10/06 07:49:50;;;;;;;5.00;3.42;;;;;;;8.89;100.00;101367.38;5083533;28;20080;-58
2023/10/06 07:52:17;;;;;;;6.22;3.47;;;;;;;8.98;100.00;101375.38;5077582;28;20532;-60
2023/10/06 07:54:43;;;;;;;6.78;3.35;;;;;;;9.04;100.00;101366.00;5074493;28;20032;-60
2023/10/06 07:57:12;;;;;;;5.03;3.75;;;;;;;9.22;100.00;101352.91;5082279;28;20162;-58
2023/10/06 07:59:38;;;;;;;4.97;3.33;;;;;;;9.27;100.00;101341.88;5081999;28;20025;-60
2023/10/06 08:02:04;;;;;;;7.35;3.70;;;;;;;9.36;100.00;101346.34;5088161;28;20032;-59
2023/10/06 08:04:29;;;;;;;6.80;4.00;;;;;;;9.47;100.00;101339.06;5091898;28;20482;-60
2023/10/06 08:06:54;;;;;;;7.00;4.57;;;;;;;9.58;100.00;101343.41;5092038;28;20042;-60
2023/10/06 08:09:21;;;;;;;9.38;3.90;;;;;;;9.66;100.00;101350.69;5088231;28;20043;-61
2023/10/06 08:11:48;;;;;;;6.18;3.90;;;;;;;9.73;100.00;101343.84;5072052;28;20487;-56
2023/10/06 08:14:14;;;;;;;6.05;3.88;;;;;;;9.84;100.00;101337.50;5071563;28;20472;-60
2023/10/06 08:16:40;;;;;;;6.85;3.97;;;;;;;10.03;100.00;101337.47;5071642;28;20131;-60
2023/10/06 08:19:06;;;;;;;8.20;4.38;;;;;;;10.15;100.00;101346.13;5071556;28;20129;-61
2023/10/06 08:21:31;;;;;;;7.60;4.50;;;;;;;10.31;100.00;101355.25;5071724;28;20060;-59
2023/10/06 08:23:56;;;;;;;6.95;4.03;;;;;;;10.45;100.00;101356.59;5071488;28;20107;-59
2023/10/06 08:26:22;;;;;;;9.38;5.20;;;;;;;10.60;100.00;101352.47;5071647;28;20037;-60
2023/10/06 08:28:49;;;;;;;7.30;4.53;;;;;;;10.67;100.00;101354.56;5070505;28;20040;-60
2023/10/06 08:31:15;;;;;;;7.80;4.40;;;;;;;10.75;100.00;101351.97;5071566;28;20041;-60
2023/10/06 08:33:40;;;;;;;8.18;4.65;;;;;;;10.90;100.00;101361.19;5071312;28;20033;-61
2023/10/06 08:36:08;;;;;;;7.22;4.82;;;;;;;10.97;100.00;101356.94;5071635;28;20151;-60
2023/10/06 08:38:34;;;;;;;6.82;4.80;;;;;;;10.98;100.00;101357.78;5071572;28;20037;-58
2023/10/06 08:41:04;;;;;;;8.60;4.65;;;;;;;11.08;100.00;101364.75;5071548;28;20066;-58
2023/10/06 08:43:30;;;;;;;8.77;5.22;;;;;;;11.24;100.00;101360.56;5071237;28;20502;-58
2023/10/06 08:45:59;;;;;;;7.00;5.22;;;;;;;11.31;100.00;101359.81;5071461;28;20028;-59
2023/10/06 08:48:31;;;;;;;8.65;5.07;;;;;;;11.41;100.00;101357.91;5071492;28;20052;-59
2023/10/06 08:50:59;;;;;;;7.05;4.35;;;;;;;11.55;100.00;101369.06;5071548;28;20036;-60
2023/10/06 08:53:26;;;;;;;9.00;4.60;;;;;;;11.63;100.00;101361.94;5071179;28;20445;-57
2023/10/06 08:55:52;;;;;;;7.45;4.50;;;;;;;11.72;100.00;101354.84;5071425;28;20376;-60
2023/10/06 08:58:17;;;;;;;7.07;4.50;;;;;;;11.87;100.00;101357.84;5071443;28;20123;-58
2023/10/06 09:00:43;;;;;;;7.88;4.78;;;;;;;12.05;100.00;101360.47;5071389;28;20035;-60
2023/10/06 09:03:11;;;;;;;6.28;4.78;;;;;;;12.41;100.00;101354.06;5071063;28;20048;-57
2023/10/06 09:05:40;;;;;;;8.52;4.65;;;;;;;12.52;100.00;101347.59;5071456;28;20040;-59
2023/10/06 09:08:08;;;;;;;6.88;4.20;;;;;;;12.80;100.00;101356.25;5073100;28;20045;-59
2023/10/06 09:10:54;;;;;;;7.75;4.22;;;;;;;12.93;100.00;101350.44;5074946;28;20713;-60
2023/10/06 09:13:21;;;;;;;8.68;4.30;;;;;;;12.99;100.00;101347.97;5074835;28;20535;-60
2023/10/06 09:16:02;;;;;;;7.22;4.05;;;;;;;12.97;100.00;101339.25;5075084;28;20033;-55
2023/10/06 09:18:28;;;;;;;7.00;3.90;;;;;;;13.25;100.00;101341.72;5075049;28;20024;-59
2023/10/06 09:20:56;;;;;;;5.65;3.88;;;;;;;13.36;100.00;101340.53;5078482;28;20368;-60
2023/10/06 09:23:36;;;;;;;6.05;3.90;;;;;;;13.55;100.00;101338.38;5094789;28;20032;-59
2023/10/06 09:26:04;;;;;;;4.45;3.00;;;;;;;13.78;100.00;101340.41;5095070;28;20115;-59
2023/10/06 09:28:33;;;;;;;5.00;3.63;;;;;;;13.85;100.00;101328.88;5094954;28;20055;-60
2023/10/06 09:31:01;;;;;;;5.15;3.05;;;;;;;14.01;99.25;101328.00;5094937;28;20039;-60
2023/10/06 09:33:27;;;;;;;;;;;;;;;14.26;98.31;101334.16;5095151;28;20461;-59
2023/10/06 09:36:07;;;;;;;6.90;3.55;;;;;;;14.38;96.68;101330.13;5094897;28;20465;-60
2023/10/06 09:38:37;;;;;;;4.00;2.40;;;;;;;14.52;93.23;101320.53;5094913;28;20085;-59
2023/10/06 09:41:05;;;;;;;4.60;2.83;;;;;;;14.80;93.93;101322.78;5094824;28;20032;-60
2023/10/06 09:43:35;;;;;;;6.05;3.28;;;;;;;15.13;93.35;101320.78;5094498;28;20040;-60
2023/10/06 09:46:11;;;;;;;5.90;2.97;;;;;;;15.40;89.00;101322.94;5094630;28;20404;-60
2023/10/06 09:48:38;;;;;;;6.10;2.90;;;;;;;15.76;88.93;101322.34;5094612;28;20040;-60
2023/10/06 09:51:08;;;;;;;5.25;2.53;;;;;;;15.96;82.19;101315.44;5094530;28;20127;-60
2023/10/06 09:53:38;;;;;;;4.88;2.63;;;;;;;16.67;80.51;101306.94;5094384;28;20123;-60
2023/10/06 09:56:09;;;;;;;5.43;2.92;;;;;;;16.84;74.85;101307.59;5094595;28;20052;-59
2023/10/06 09:58:36;;;;;;;6.25;2.85;;;;;;;17.57;71.65;101303.81;5094561;28;20123;-59
2023/10/06 10:01:03;;;;;;;6.03;3.07;;;;;;;17.93;68.38;101295.66;5094474;28;20056;-59
2023/10/06 10:03:28;;;;;;;3.95;2.42;;;;;;;18.47;63.21;101288.72;5094143;28;20317;-60
2023/10/06 10:05:57;;;;;;;5.53;2.70;;;;;;;18.98;62.44;101294.59;5094363;28;20083;-57
2023/10/06 10:08:23;;;;;;;6.30;2.40;;;;;;;19.08;58.47;101280.69;5094360;28;20039;-56
2023/10/06 10:10:52;;;;;;;5.35;2.90;;;;;;;19.57;58.44;101280.34;5094276;28;20036;-59
2023/10/06 10:13:59;;;;;;;3.50;2.38;;;;;;;20.01;57.12;101286.97;5094099;28;20067;-58
2023/10/06 10:16:41;;;;;;;5.22;2.90;;;;;;;20.86;53.89;101285.94;5094174;28;20449;-58
2023/10/06 10:19:11;;;;;;;6.93;2.63;;;;;;;21.22;52.09;101289.06;5093976;28;20433;-58
2023/10/06 10:21:38;;;;;;;5.80;2.83;;;;;;;21.38;50.77;101273.13;5093933;28;20124;-58
2023/10/06 10:24:05;;;;;;;3.25;2.35;;;;;;;21.97;49.51;101279.09;5093657;28;20168;-58
2023/10/06 10:26:33;;;;;;;8.50;2.58;;;;;;;22.50;49.09;101275.03;5092532;28;20120;-60
2023/10/06 10:29:17;;;;;;;4.00;2.40;;;;;;;22.81;46.99;101269.38;5093672;28;20028;-60
2023/10/06 10:31:47;;;;;;;4.63;2.70;;;;;;;22.61;47.64;101256.06;5093723;28;20032;-60
2023/10/06 10:34:20;;;;;;;6.97;2.38;;;;;;;22.90;47.16;101265.34;5093624;28;20398;-58
2023/10/06 10:37:06;;;;;;;5.53;2.65;;;;;;;23.17;46.64;101260.34;5093641;28;20100;-61
2023/10/06 10:39:48;;;;;;;4.30;2.58;;;;;;;22.82;46.66;101260.19;5093433;28;20044;-60
2023/10/06 10:42:17;;;;;;;4.18;2.33;;;;;;;23.37;46.83;101262.75;5093573;28;20050;-61
2023/10/06 10:44:44;;;;;;;5.30;2.42;;;;;;;24.00;43.65;101258.59;5093232;28;20032;-60
2023/10/06 10:47:10;;;;;;;4.15;2.50;;;;;;;23.81;43.21;101255.97;5093444;28;20044;-59
2023/10/06 10:49:36;;;;;;;4.55;2.58;;;;;;;23.33;44.54;101247.97;5093467;28;20103;-58
2023/10/06 10:52:12;;;;;;;5.13;2.70;;;;;;;24.51;42.46;101252.34;5093237;28;20410;-59
2023/10/06 10:54:39;;;;;;;4.47;2.33;;;;;;;24.88;41.46;101252.81;5093156;28;20402;-60
2023/10/06 10:57:13;;;;;;;5.03;2.10;;;;;;;25.70;40.54;101254.25;5093338;28;20032;-57
2023/10/06 11:02:38;;;;;;;4.90;2.40;;;;;;;26.20;39.50;101251.44;5093146;28;20111;-60
2023/10/06 11:05:04;;;;;;;4.35;2.20;;;;;;;26.71;38.00;101246.63;5093109;28;20048;-60
2023/10/06 11:07:29;;;;;;;3.63;2.40;;;;;;;26.46;37.54;101236.22;5093031;28;20031;-59
2023/10/06 11:09:57;;;;;;;4.93;2.25;;;;;;;26.53;38.56;101236.03;5084080;28;20539;-60
2023/10/06 11:12:28;;;;;;;;;;;;;;;27.07;36.65;101236.09;5082444;28;20048;-60
2023/10/06 11:15:02;;;;;;;5.13;2.45;;;;;;;27.43;36.42;101228.19;5081718;28;19923;-60
2023/10/06 11:17:29;;;;;;;4.38;2.50;;;;;;;27.75;35.33;101228.19;5081317;28;20043;-60
2023/10/06 11:20:00;;;;;;;3.13;2.25;;;;;;;26.75;37.70;101227.81;5082714;28;20059;-60
2023/10/06 11:22:26;;;;;;;4.95;2.35;;;;;;;27.17;35.21;101227.16;5083190;28;20126;-60
2023/10/06 11:24:57;;;;;;;4.82;2.35;;;;;;;27.36;35.36;101222.94;5081401;28;20089;-58
2023/10/06 11:27:23;;;;;;;5.10;2.95;;;;;;;27.39;36.02;101225.16;5081590;28;20051;-59
2023/10/06 11:29:53;;;;;;;5.47;2.87;;;;;;;27.60;35.43;101226.13;5082852;28;20032;-60
2023/10/06 11:32:21;;;;;;;4.95;2.60;;;;;;;27.10;35.95;101218.34;5082115;28;20037;-60
2023/10/06 11:34:54;;;;;;;3.63;2.20;;;;;;;28.08;34.10;101222.34;5080771;28;20112;-60
2023/10/06 11:37:24;;;;;;;4.55;2.38;;;;;;;27.34;34.52;101216.91;5080521;28;20089;-60
2023/10/06 11:39:53;;;;;;;5.28;2.58;;;;;;;27.44;34.54;101216.97;5083053;28;20410;-60
2023/10/06 11:42:29;;;;;;;5.20;2.75;;;;;;;26.70;35.04;101214.91;5080328;28;20056;-60
2023/10/06 11:44:59;;;;;;;8.00;3.13;;;;;;;26.18;36.88;101215.38;5072129;28;20036;-60
2023/10/06 11:47:28;;;;;;;3.17;2.05;;;;;;;25.94;36.87;101208.50;5072259;28;20079;-60
2023/10/06 11:49:54;;;;;;;4.20;2.30;;;;;;;26.34;36.41;101200.00;5072225;28;20035;-60
2023/10/06 11:52:19;;;;;;;4.88;2.30;;;;;;;26.40;36.11;101201.72;5072085;28;20399;-60
2023/10/06 11:54:46;;;;;;;5.05;2.33;;;;;;;27.07;34.69;101200.56;5071935;28;20071;-60
2023/10/06 11:57:13;;;;;;;6.18;3.08;;;;;;;27.41;33.25;101198.38;5072197;28;20044;-60
2023/10/06 11:59:51;;;;;;;4.07;2.33;;;;;;;28.03;32.92;101196.84;5072004;28;20040;-58
2023/10/06 12:02:17;;;;;;;6.30;2.70;;;;;;;27.40;33.87;101191.25;5071975;28;20029;-60
2023/10/06 12:04:43;;;;;;;6.10;2.25;;;;;;;27.58;33.76;101190.00;5071774;28;20094;-59
2023/10/06 12:07:24;;;;;;;3.28;2.28;;;;;;;27.91;32.88;101182.53;5072135;28;20441;-60
2023/10/06 12:09:50;;;;;;;6.43;2.55;;;;;;;26.98;33.80;101189.22;5072122;28;20032;-62
2023/10/06 12:12:19;;;;;;;4.35;2.15;;;;;;;27.48;34.13;101179.81;5075432;28;20035;-59
2023/10/06 12:15:06;;;;;;;3.28;2.47;;;;;;;26.57;33.96;101174.34;5092474;28;20054;-59
2023/10/06 12:17:36;;;;;;;3.78;2.35;;;;;;;26.32;35.46;101177.59;5091393;28;20063;-59
2023/10/06 12:20:03;;;;;;;6.07;2.72;;;;;;;26.21;35.31;101171.19;5074790;28;20483;-61
2023/10/06 12:22:30;;;;;;;5.60;2.40;;;;;;;26.65;35.37;101162.94;5092090;28;20107;-61
2023/10/06 12:24:55;;;;;;;5.40;2.95;;;;;;;26.85;36.04;101164.22;5085226;28;20073;-61
2023/10/06 12:27:21;;;;;;;4.47;2.88;;;;;;;26.85;36.02;101162.31;5079514;28;20525;-60
2023/10/06 12:29:48;;;;;;;6.32;2.88;;;;;;;26.95;35.47;101164.34;5081636;28;20395;-61
2023/10/06 12:32:14;;;;;;;7.05;3.58;;;;;;;27.52;34.98;101158.25;5080342;28;20044;-60
2023/10/06 12:34:39;;;;;;;5.10;2.83;;;;;;;26.83;35.44;101152.75;5063307;28;20040;-59
2023/10/06 12:37:07;;;;;;;5.18;2.60;;;;;;;26.07;36.87;101156.25;5082106;28;20032;-61
2023/10/06 12:39:35;;;;;;;5.70;2.80;;;;;;;26.58;35.35;101145.13;5080728;28;20501;-60
2023/10/06 12:42:03;;;;;;;3.83;2.20;;;;;;;26.90;35.26;101156.91;5079565;28;20043;-60
2023/10/06 12:44:29;;;;;;;5.30;3.28;;;;;;;26.38;36.60;101142.97;5084776;28;20024;-60
2023/10/06 12:46:55;;;;;;;5.32;2.53;;;;;;;27.39;34.95;101139.56;5083435;28;20032;-61
2023/10/06 12:49:24;;;;;;;3.40;2.00;;;;;;;27.28;35.12;101144.13;5085070;28;20040;-61
2023/10/06 12:51:50;;;;;;;4.43;2.58;;;;;;;27.27;35.07;101137.81;5086154;28;20462;-62
2023/10/06 12:54:15;;;;;;;5.53;2.50;;;;;;;27.00;35.60;101139.78;5084106;28;20063;-59
2023/10/06 12:56:46;;;;;;;5.40;3.13;;;;;;;26.53;36.73;101134.94;5085878;28;20056;-60
2023/10/06 12:59:11;;;;;;;5.03;2.40;;;;;;;26.61;35.42;101137.25;5085263;28;20499;-61
2023/10/06 13:01:37;;;;;;;6.55;2.75;;;;;;;26.68;35.74;101124.19;5085078;28;20035;-60
2023/10/06 13:04:03;;;;;;;5.03;2.38;;;;;;;26.11;36.18;101124.66;5084503;28;20583;-59
2023/10/06 13:06:32;;;;;;;6.05;2.70;;;;;;;25.62;37.63;101127.25;5085349;28;20103;-61
2023/10/06 13:09:02;;;;;;;6.30;2.83;;;;;;;25.00;37.31;101126.56;5082780;28;20047;-60
2023/10/06 13:11:28;;;;;;;5.47;2.67;;;;;;;24.84;38.49;101123.59;5083818;28;20052;-61
2023/10/06 13:13:54;;;;;;;6.63;2.95;;;;;;;24.27;39.15;101129.06;5085251;28;20518;-61
2023/10/06 13:16:20;;;;;;;5.05;2.50;;;;;;;24.15;39.39;101114.66;5084345;28;20044;-60
2023/10/06 13:18:46;;;;;;;5.18;2.60;;;;;;;23.85;39.27;101120.31;5067592;28;20032;-60
2023/10/06 13:21:12;;;;;;;6.30;2.67;;;;;;;23.82;40.03;101115.34;5090962;28;20028;-60
2023/10/06 13:23:38;;;;;;;5.70;2.55;;;;;;;23.27;42.25;101121.16;5094889;28;20062;-61
2023/10/06 13:26:04;;;;;;;6.40;3.15;;;;;;;23.62;40.48;101115.75;5095082;28;20101;-60
2023/10/06 13:28:31;;;;;;;6.13;2.60;;;;;;;23.20;42.46;101110.41;5095185;28;20032;-60
2023/10/06 13:30:57;;;;;;;4.55;2.60;;;;;;;22.91;42.81;101103.19;5095042;28;20043;-61
2023/10/06 13:33:25;;;;;;;5.30;2.70;;;;;;;22.72;41.81;101099.69;5094820;28;20036;-61
2023/10/06 13:35:51;;;;;;;4.28;2.53;;;;;;;22.20;43.10;101107.53;5088791;28;20410;-59
2023/10/06 13:38:17;;;;;;;6.15;2.67;;;;;;;21.88;43.67;101107.69;5086220;28;20086;-61
2023/10/06 13:40:46;;;;;;;4.95;2.80;;;;;;;22.01;43.42;101097.75;5082717;28;20085;-60
2023/10/06 13:43:17;;;;;;;4.43;2.88;;;;;;;21.77;45.14;101096.78;5068258;28;20077;-61
2023/10/06 13:45:43;;;;;;;6.65;3.15;;;;;;;21.55;46.06;101097.22;5086053;28;20078;-61
2023/10/06 13:48:11;;;;;;;5.75;2.92;;;;;;;21.72;45.21;101083.91;5088827;28;20491;-61
2023/10/06 13:50:37;;;;;;;6.25;3.45;;;;;;;21.42;45.36;101078.41;5082986;28;20124;-60
2023/10/06 13:53:04;;;;;;;5.78;3.10;;;;;;;21.59;45.82;101084.91;5085200;28;20031;-60
2023/10/06 13:55:30;;;;;;;6.68;3.40;;;;;;;21.74;46.18;101080.97;5085824;28;20056;-60
2023/10/06 13:58:01;;;;;;;6.90;2.80;;;;;;;21.56;46.61;101079.09;5083007;28;20056;-59
2023/10/06 14:00:29;;;;;;;6.28;3.10;;;;;;;21.51;46.05;101076.22;5085094;28;20051;-60
2023/10/06 14:03:13;;;;;;;4.93;3.00;;;;;;;21.62;46.03;101079.00;5084941;28;20078;-61
2023/10/06 14:05:43;;;;;;;6.03;2.85;;;;;;;21.84;46.47;101073.97;5081214;28;20483;-60
2023/10/06 14:08:10;;;;;;;5.63;3.30;;;;;;;21.79;46.58;101079.25;5084067;28;20028;-61
2023/10/06 14:10:36;;;;;;;6.43;3.47;;;;;;;21.60;46.71;101069.47;5082724;28;20434;-60
2023/10/06 14:13:08;;;;;;;6.07;3.17;;;;;;;21.59;46.57;101065.09;5082761;28;20036;-60
2023/10/06 14:15:54;;;;;;;6.07;3.08;;;;;;;21.61;46.65;101060.25;5079917;28;20302;-61
2023/10/06 14:18:23;;;;;;;7.43;3.40;;;;;;;21.72;46.92;101062.22;5082232;28;20103;-61
2023/10/06 14:20:50;;;;;;;6.38;3.10;;;;;;;21.50;47.60;101066.44;5080299;28;20074;-61
2023/10/06 14:23:18;;;;;;;4.65;2.80;;;;;;;21.52;47.72;101056.22;5081479;28;20028;-61
2023/10/06 14:25:44;;;;;;;5.53;2.85;;;;;;;21.28;48.07;101060.59;5084948;28;20398;-61
2023/10/06 14:28:10;;;;;;;7.00;3.03;;;;;;;21.34;46.67;101065.97;5090798;28;20032;-61
2023/10/06 14:30:44;;;;;;;6.90;3.42;;;;;;;21.07;48.65;101070.81;5093887;28;20552;-60
2023/10/06 14:35:52;;;;;;;6.82;3.30;;;;;;;20.90;48.69;101066.97;5093828;28;20040;-61
2023/10/06 14:46:42;;;;;;;6.78;3.83;;;;;;;20.48;49.43;101065.88;5093629;28;20043;-60
2023/10/06 14:49:15;;;;;;;8.65;4.30;;;;;;;20.41;49.30;101073.13;5093604;28;20444;-61
2023/10/06 14:51:43;;;;;;;7.18;3.72;;;;;;;20.49;50.10;101070.22;5093602;28;20042;-61
2023/10/06 14:54:12;;;;;;;6.63;3.75;;;;;;;20.42;49.28;101062.13;5093203;28;20035;-60
2023/10/06 14:56:38;;;;;;;8.15;4.00;;;;;;;20.36;49.61;101056.75;5092801;28;20081;-60
2023/10/06 14:59:09;;;;;;;9.13;4.00;;;;;;;20.37;49.25;101066.53;5092318;28;20115;-60
2023/10/06 15:01:36;;;;;;;7.75;4.30;;;;;;;20.21;48.13;101052.47;5093343;28;20036;-60
2023/10/06 15:04:01;;;;;;;11.05;4.78;;;;;;;20.21;47.74;101057.88;5093071;28;20036;-60
2023/10/06 15:06:27;;;;;;;9.05;4.35;;;;;;;20.17;47.70;101053.94;5092320;28;20487;-61
2023/10/06 15:08:54;;;;;;;10.77;4.97;;;;;;;20.04;47.73;101051.31;5093135;28;20036;-61
2023/10/06 15:11:23;;;;;;;9.97;5.27;;;;;;;20.01;47.36;101044.44;5093047;28;20158;-61
2023/10/06 15:13:49;;;;;;;8.55;4.78;;;;;;;19.94;47.72;101046.34;5092867;28;20038;-62
2023/10/06 15:16:18;;;;;;;9.40;5.45;;;;;;;19.91;47.90;101043.28;5092938;28;20040;-62
2023/10/06 15:18:48;;;;;;;9.82;4.88;;;;;;;19.93;47.65;101044.69;5093039;28;20039;-60
2023/10/06 15:21:14;;;;;;;8.32;4.72;;;;;;;19.81;47.97;101037.47;5092802;28;20513;-60
2023/10/06 15:23:41;;;;;;;10.00;5.15;;;;;;;19.76;48.86;101041.69;5092577;28;20031;-60
2023/10/06 15:26:07;;;;;;;10.18;5.40;;;;;;;19.63;48.73;101032.78;5092758;28;20044;-60
2023/10/06 15:28:36;;;;;;;8.38;4.63;;;;;;;19.61;49.04;101042.97;5092908;28;20039;-60
2023/10/06 15:31:02;;;;;;;9.07;4.82;;;;;;;19.62;48.53;101031.94;5092768;28;20071;-60
2023/10/06 15:33:31;;;;;;;10.23;5.20;;;;;;;19.53;49.38;101036.72;5092471;28;20052;-59
2023/10/06 15:36:02;;;;;;;11.15;6.63;;;;;;;19.47;49.38;101042.16;5092712;28;20044;-61
2023/10/06 15:38:28;;;;;;;10.88;6.22;;;;;;;19.39;49.63;101045.09;5092473;28;20035;-60
2023/10/06 15:41:00;;;;;;;9.50;5.75;;;;;;;19.35;49.51;101039.28;5092621;28;20036;-59
2023/10/06 15:43:25;;;;;;;10.95;5.43;;;;;;;19.31;49.90;101050.72;5092322;28;20559;-59
2023/10/06 15:45:58;;;;;;;7.55;4.47;;;;;;;19.19;50.18;101042.44;5092784;28;20039;-59
2023/10/06 15:48:25;;;;;;;10.93;5.03;;;;;;;19.10;50.35;101044.50;5092535;28;20436;-60
2023/10/06 15:50:56;;;;;;;10.95;5.32;;;;;;;19.06;50.07;101048.69;5092355;28;20047;-59
2023/10/06 15:53:22;;;;;;;10.43;5.38;;;;;;;18.91;50.61;101045.38;5092079;28;20035;-60
2023/10/06 15:55:47;;;;;;;10.98;5.55;;;;;;;18.77;51.27;101041.84;5092233;28;20379;-60
2023/10/06 15:58:13;;;;;;;10.82;5.72;;;;;;;18.75;51.79;101043.91;5092326;28;20490;-60
2023/10/06 16:00:39;;;;;;;11.88;5.65;;;;;;;18.66;52.56;101040.59;5092286;28;20111;-60
2023/10/06 16:03:05;;;;;;;10.27;5.45;;;;;;;18.60;52.36;101043.28;5091995;28;20032;-60
2023/10/06 16:05:31;;;;;;;10.70;5.28;;;;;;;18.55;52.47;101040.34;5092176;28;20741;-61